Time;durP1;ratioP1;P1;durP2;ratioP2;P2;SDS_P1;SDS_P2;PMS_P1;PMS_P2;Temp;Humidity;BMP_temperature;BMP_pressure;BME280_temperature;BME280_humidity;BME280_pressure;Samples;Min_cycle;Max_cycle;Signal;HPM_P1;HPM_P2
2021/10/26 00:02:10;;;;;;;14.97;13.40;;;8.10;99.90;;;;;;5071736;28;20555;-47
2021/10/26 00:04:37;;;;;;;20.43;14.27;;;7.90;99.90;;;;;;5071932;28;20957;-47
2021/10/26 00:07:04;;;;;;;20.33;14.27;;;8.10;99.90;;;;;;5070799;28;20446;-47
2021/10/26 00:09:31;;;;;;;17.57;13.70;;;8.00;99.90;;;;;;5071663;28;20438;-47
2021/10/26 00:12:00;;;;;;;16.80;14.47;;;8.30;99.90;;;;;;5071760;28;20795;-47
2021/10/26 00:14:28;;;;;;;17.93;13.07;;;7.80;99.90;;;;;;5071889;28;20487;-47
2021/10/26 00:16:58;;;;;;;15.77;13.50;;;7.90;99.90;;;;;;5071796;28;20431;-47
2021/10/26 00:19:25;;;;;;;14.67;13.17;;;8.20;99.90;;;;;;5071400;28;20537;-47
2021/10/26 00:21:52;;;;;;;16.13;13.70;;;7.90;99.90;;;;;;5071875;28;20437;-47
2021/10/26 00:24:18;;;;;;;16.13;13.20;;;8.10;99.90;;;;;;5071813;28;20533;-47
2021/10/26 00:26:46;;;;;;;15.87;13.30;;;8.00;99.90;;;;;;5071716;28;20936;-47
2021/10/26 00:29:16;;;;;;;18.60;15.90;;;8.00;99.90;;;;;;5071346;28;20411;-47
2021/10/26 00:31:43;;;;;;;17.80;14.50;;;8.00;99.90;;;;;;5071548;28;20407;-47
2021/10/26 00:34:10;;;;;;;17.07;13.50;;;8.10;99.90;;;;;;5071628;28;20426;-48
2021/10/26 00:36:36;;;;;;;16.87;14.03;;;8.00;99.90;;;;;;5070390;28;20453;-48
2021/10/26 00:39:06;;;;;;;15.60;12.50;;;7.80;99.90;;;;;;5069927;28;20481;-48
2021/10/26 00:41:33;;;;;;;19.60;13.47;;;7.70;99.90;;;;;;5070328;28;20495;-48
2021/10/26 00:44:00;;;;;;;14.43;12.00;;;7.90;99.90;;;;;;5070270;28;20838;-48
2021/10/26 00:46:30;;;;;;;15.67;12.80;;;8.10;99.90;;;;;;5073181;28;20481;-48
2021/10/26 00:48:59;;;;;;;16.57;12.73;;;8.20;99.90;;;;;;5073907;28;20510;-48
2021/10/26 00:51:26;;;;;;;18.50;13.87;;;8.30;99.90;;;;;;5074344;28;20523;-48
2021/10/26 00:53:53;;;;;;;19.27;15.17;;;8.30;99.90;;;;;;5075531;28;20462;-48
2021/10/26 00:56:21;;;;;;;20.20;13.23;;;8.60;99.90;;;;;;5074225;28;20498;-48
2021/10/26 00:58:49;;;;;;;20.07;14.23;;;8.50;99.90;;;;;;5073982;28;20455;-47
2021/10/26 01:01:16;;;;;;;17.30;12.97;;;8.60;99.90;;;;;;5073989;28;20991;-48
2021/10/26 01:03:44;;;;;;;18.80;13.90;;;8.50;99.90;;;;;;5073909;28;21011;-48
2021/10/26 01:06:11;;;;;;;13.90;12.50;;;8.60;99.90;;;;;;5073933;28;20444;-48
2021/10/26 01:08:40;;;;;;;16.90;13.40;;;8.70;99.90;;;;;;5073566;28;20444;-48
2021/10/26 01:11:08;;;;;;;16.90;13.00;;;8.80;99.90;;;;;;5080252;28;20443;-47
2021/10/26 01:13:34;;;;;;;17.43;14.20;;;9.10;99.90;;;;;;5075346;28;20457;-48
2021/10/26 01:16:01;;;;;;;23.47;13.50;;;8.50;99.90;;;;;;5073947;28;20449;-48
2021/10/26 01:18:31;;;;;;;17.07;15.40;;;8.60;99.90;;;;;;5073272;28;20541;-48
2021/10/26 01:21:00;;;;;;;20.80;13.77;;;8.30;99.90;;;;;;5073713;28;20438;-48
2021/10/26 01:23:27;;;;;;;15.03;12.90;;;8.70;99.90;;;;;;5073660;28;20505;-48
2021/10/26 01:25:56;;;;;;;22.90;13.13;;;8.40;99.90;;;;;;5073650;28;20962;-48
2021/10/26 01:28:23;;;;;;;14.67;13.23;;;8.70;99.90;;;;;;5073367;28;20449;-48
2021/10/26 01:30:50;;;;;;;17.77;13.17;;;8.80;99.90;;;;;;5073481;28;20460;-48
2021/10/26 01:33:36;;;;;;;14.83;13.20;;;8.80;99.90;;;;;;5075181;28;20588;-48
2021/10/26 01:36:11;;;;;;;16.33;13.43;;;8.90;99.90;;;;;;5073679;28;20816;-48
2021/10/26 01:38:38;;;;;;;18.63;13.67;;;8.80;99.90;;;;;;5073201;28;20448;-48
2021/10/26 01:41:08;;;;;;;15.53;13.10;;;8.50;99.90;;;;;;5073227;28;20449;-48
2021/10/26 01:43:35;;;;;;;16.17;12.60;;;8.80;99.90;;;;;;5073228;28;20520;-48
2021/10/26 01:46:01;;;;;;;21.57;13.57;;;8.80;99.90;;;;;;5073270;28;20423;-48
2021/10/26 01:48:40;;;;;;;15.30;12.30;;;8.70;99.90;;;;;;5072975;28;20881;-48
2021/10/26 01:51:07;;;;;;;15.10;12.00;;;8.60;99.90;;;;;;5072655;28;20899;-48
2021/10/26 01:53:36;;;;;;;15.37;12.33;;;8.80;99.90;;;;;;5072987;28;20844;-48
2021/10/26 01:56:07;;;;;;;20.90;13.67;;;8.30;99.90;;;;;;5072777;28;20473;-48
2021/10/26 01:58:53;;;;;;;15.73;12.60;;;8.90;99.90;;;;;;5072573;28;20576;-48
2021/10/26 02:01:22;;;;;;;16.67;12.47;;;8.70;99.90;;;;;;5072855;28;20446;-48
2021/10/26 02:03:49;;;;;;;14.47;12.13;;;8.40;99.90;;;;;;5072951;28;20484;-48
2021/10/26 02:06:18;;;;;;;17.17;13.50;;;8.70;99.90;;;;;;5072950;28;20522;-48
2021/10/26 02:08:46;;;;;;;15.90;12.20;;;8.50;99.90;;;;;;5073724;28;20430;-48
2021/10/26 02:11:15;;;;;;;16.90;13.30;;;8.30;99.90;;;;;;5072866;28;20426;-47
2021/10/26 02:13:43;;;;;;;14.23;12.17;;;8.60;99.90;;;;;;5072870;28;20534;-48
2021/10/26 02:16:12;;;;;;;16.30;12.80;;;8.70;99.90;;;;;;5072875;28;20463;-48
2021/10/26 02:18:39;;;;;;;17.03;12.53;;;8.50;99.90;;;;;;5073495;28;21000;-48
2021/10/26 02:21:06;;;;;;;15.07;12.43;;;8.50;99.90;;;;;;5072592;28;20526;-48
2021/10/26 02:23:35;;;;;;;17.20;13.93;;;8.40;99.90;;;;;;5072440;28;20476;-48
2021/10/26 02:26:05;;;;;;;16.80;13.40;;;8.70;99.90;;;;;;5072622;28;20432;-48
2021/10/26 02:28:33;;;;;;;14.63;12.00;;;8.50;99.90;;;;;;5072322;28;20446;-48
2021/10/26 02:31:00;;;;;;;20.47;14.30;;;8.40;99.90;;;;;;5072679;28;20511;-47
2021/10/26 02:33:27;;;;;;;17.37;14.63;;;8.20;99.90;;;;;;5072928;28;20618;-48
2021/10/26 02:35:53;;;;;;;15.87;12.97;;;8.30;99.90;;;;;;5072466;28;20523;-47
2021/10/26 02:38:20;;;;;;;17.50;11.63;;;8.40;99.90;;;;;;5071900;28;20488;-48
2021/10/26 02:40:47;;;;;;;17.10;13.37;;;8.10;99.90;;;;;;5072154;28;20484;-48
2021/10/26 02:43:15;;;;;;;17.80;13.60;;;8.30;99.90;;;;;;5072086;28;20534;-48
2021/10/26 02:45:42;;;;;;;16.60;12.80;;;8.30;99.90;;;;;;5072071;28;20535;-48
2021/10/26 02:48:11;;;;;;;16.57;13.47;;;8.20;99.90;;;;;;5071586;28;20453;-48
2021/10/26 02:50:38;;;;;;;21.00;13.67;;;8.20;99.90;;;;;;5072099;28;20536;-47
2021/10/26 02:53:05;;;;;;;16.40;13.60;;;8.50;99.90;;;;;;5071934;28;20629;-48
2021/10/26 02:55:32;;;;;;;14.20;12.67;;;8.20;99.90;;;;;;5071892;28;20445;-48
2021/10/26 02:58:09;;;;;;;14.43;12.40;;;8.40;99.90;;;;;;5071435;28;20489;-48
2021/10/26 03:00:37;;;;;;;14.90;13.13;;;8.20;99.90;;;;;;5073118;28;20474;-47
2021/10/26 03:03:11;;;;;;;15.63;12.73;;;8.20;99.90;;;;;;5072874;28;20440;-48
2021/10/26 03:05:39;;;;;;;19.40;13.73;;;8.40;99.90;;;;;;5072115;28;20445;-48
2021/10/26 03:08:06;;;;;;;14.80;12.80;;;8.20;99.90;;;;;;5072147;28;20483;-48
2021/10/26 03:10:36;;;;;;;20.03;13.20;;;8.20;99.90;;;;;;5071803;28;20766;-48
2021/10/26 03:13:02;;;;;;;17.03;14.30;;;8.10;99.90;;;;;;5071390;28;20469;-48
2021/10/26 03:15:35;;;;;;;21.30;13.83;;;8.10;99.90;;;;;;5071385;28;20487;-48
2021/10/26 03:18:12;;;;;;;14.80;12.13;;;8.10;99.90;;;;;;5070956;28;21034;-48
2021/10/26 03:20:42;;;;;;;21.90;13.30;;;7.90;99.90;;;;;;5071230;28;21036;-48
2021/10/26 03:23:11;;;;;;;18.20;13.50;;;8.20;99.90;;;;;;5070573;28;20476;-48
2021/10/26 03:25:40;;;;;;;20.20;13.83;;;8.20;99.90;;;;;;5071609;28;20460;-48
2021/10/26 03:28:09;;;;;;;16.30;13.77;;;8.10;99.90;;;;;;5071187;28;20450;-48
2021/10/26 03:30:37;;;;;;;15.87;13.97;;;8.20;99.90;;;;;;5072814;28;20795;-48
2021/10/26 03:33:20;;;;;;;17.13;13.80;;;8.20;99.90;;;;;;5071008;28;20850;-47
2021/10/26 03:36:03;;;;;;;18.43;14.10;;;8.10;99.90;;;;;;5071043;28;20575;-48
2021/10/26 03:38:36;;;;;;;19.60;13.03;;;8.40;99.90;;;;;;5070644;28;20460;-48
2021/10/26 03:41:03;;;;;;;15.10;13.07;;;8.30;99.90;;;;;;5072354;28;20784;-48
2021/10/26 03:43:30;;;;;;;22.23;12.87;;;8.30;99.90;;;;;;5072380;28;20827;-48
2021/10/26 03:45:58;;;;;;;16.63;13.20;;;8.40;99.90;;;;;;5070913;28;20468;-48
2021/10/26 03:48:27;;;;;;;20.37;12.40;;;8.10;99.90;;;;;;5072280;28;20765;-48
2021/10/26 03:50:55;;;;;;;18.17;13.10;;;8.40;99.90;;;;;;5071792;28;20515;-48
2021/10/26 03:53:22;;;;;;;17.93;11.90;;;8.50;99.90;;;;;;5073173;28;20465;-48
2021/10/26 03:55:49;;;;;;;16.40;12.83;;;8.50;99.90;;;;;;5070754;28;20466;-48
2021/10/26 03:58:16;;;;;;;15.50;13.23;;;8.50;99.90;;;;;;5070306;28;20453;-48
2021/10/26 04:00:49;;;;;;;14.90;12.97;;;8.60;99.90;;;;;;5070704;28;20482;-48
2021/10/26 04:03:36;;;;;;;13.63;12.07;;;8.20;99.90;;;;;;5081701;22;20498;-51
2021/10/26 04:06:07;;;;;;;15.70;14.00;;;8.20;99.90;;;;;;5051862;28;20427;-51
2021/10/26 04:08:45;;;;;;;19.30;12.17;;;8.60;99.90;;;;;;5050068;28;20443;-51
2021/10/26 04:11:14;;;;;;;15.90;12.13;;;8.60;99.90;;;;;;5050482;28;20717;-51
2021/10/26 04:13:44;;;;;;;17.50;14.20;;;8.80;99.90;;;;;;5051512;28;20537;-52
2021/10/26 04:16:11;;;;;;;16.37;13.83;;;8.50;99.90;;;;;;5050252;28;20889;-51
2021/10/26 04:18:42;;;;;;;16.70;12.03;;;8.70;99.90;;;;;;5049838;28;20545;-52
2021/10/26 04:21:10;;;;;;;16.57;12.80;;;9.20;99.90;;;;;;5033069;28;20455;-51
2021/10/26 04:23:47;;;;;;;20.00;12.83;;;8.50;99.90;;;;;;5050014;28;20474;-51
2021/10/26 04:26:16;;;;;;;15.30;12.20;;;9.20;99.90;;;;;;5049817;28;20454;-51
2021/10/26 04:28:45;;;;;;;17.50;13.80;;;8.50;99.90;;;;;;5050142;28;20439;-51
2021/10/26 04:31:14;;;;;;;24.07;16.90;;;9.00;99.90;;;;;;5050157;28;20429;-51
2021/10/26 04:33:46;;;;;;;21.40;16.73;;;9.30;99.90;;;;;;5050586;28;20479;-51
2021/10/26 04:36:13;;;;;;;19.17;14.10;;;9.20;99.90;;;;;;5049937;28;20582;-52
2021/10/26 04:38:41;;;;;;;19.50;15.67;;;8.90;99.90;;;;;;5049429;28;20966;-52
2021/10/26 04:41:10;;;;;;;15.03;12.10;;;9.20;99.90;;;;;;5049965;28;20838;-50
2021/10/26 04:43:38;;;;;;;17.57;12.90;;;8.90;99.90;;;;;;5049959;28;20477;-50
2021/10/26 04:46:08;;;;;;;25.33;12.00;;;9.00;99.90;;;;;;5049993;28;20873;-51
2021/10/26 04:48:36;;;;;;;15.00;12.60;;;9.40;99.90;;;;;;5049907;28;20451;-51
2021/10/26 04:51:04;;;;;;;14.23;12.37;;;9.00;99.90;;;;;;5051620;28;20488;-50
2021/10/26 04:53:31;;;;;;;12.33;11.03;;;9.30;99.90;;;;;;5049759;28;20539;-50
2021/10/26 04:56:01;;;;;;;14.03;12.00;;;9.10;99.90;;;;;;5049940;28;20455;-50
2021/10/26 04:58:33;;;;;;;17.60;12.50;;;9.00;99.90;;;;;;5049813;28;20450;-50
2021/10/26 05:01:00;;;;;;;14.03;12.57;;;9.30;99.90;;;;;;5049995;28;20502;-50
2021/10/26 05:03:31;;;;;;;15.50;12.67;;;8.80;99.90;;;;;;5049901;28;20553;-50
2021/10/26 05:05:58;;;;;;;15.20;12.57;;;9.10;99.90;;;;;;5049364;28;20483;-52
2021/10/26 05:08:26;;;;;;;13.47;11.60;;;9.10;99.90;;;;;;5049360;28;20446;-49
2021/10/26 05:10:53;;;;;;;13.57;11.60;;;9.10;99.90;;;;;;5049252;28;20442;-50
2021/10/26 05:13:26;;;;;;;16.63;12.13;;;9.40;99.90;;;;;;5049470;28;20546;-50
2021/10/26 05:16:12;;;;;;;18.33;12.97;;;9.60;99.90;;;;;;5050809;28;20433;-52
2021/10/26 05:18:59;;;;;;;15.63;12.17;;;9.20;99.90;;;;;;5050204;28;20517;-52
2021/10/26 05:21:45;;;;;;;14.60;12.97;;;9.20;99.90;;;;;;5050684;28;21043;-52
2021/10/26 05:24:42;;;;;;;14.03;12.40;;;9.30;99.90;;;;;;5014343;28;20418;-50
2021/10/26 05:27:22;;;;;;;16.03;12.20;;;9.40;99.90;;;;;;5049366;28;20569;-50
2021/10/26 05:29:50;;;;;;;14.00;12.00;;;9.30;99.90;;;;;;5050009;28;20423;-50
2021/10/26 05:32:17;;;;;;;13.30;11.43;;;9.10;99.90;;;;;;5050940;28;20490;-50
2021/10/26 05:34:46;;;;;;;20.63;12.60;;;9.10;99.90;;;;;;5052059;28;20978;-50
2021/10/26 05:37:15;;;;;;;17.73;13.27;;;8.90;99.90;;;;;;5053880;28;20424;-50
2021/10/26 05:39:44;;;;;;;14.67;12.80;;;9.70;99.90;;;;;;5053995;28;20542;-51
2021/10/26 05:42:13;;;;;;;14.77;11.87;;;9.60;99.90;;;;;;5051750;28;20457;-51
2021/10/26 05:44:39;;;;;;;17.93;13.30;;;9.80;99.90;;;;;;5052047;28;20446;-52
2021/10/26 05:47:06;;;;;;;17.23;13.03;;;9.80;99.90;;;;;;5053687;28;20488;-50
2021/10/26 05:49:34;;;;;;;17.50;11.80;;;9.70;99.90;;;;;;5051526;28;20447;-52
2021/10/26 05:52:01;;;;;;;18.83;12.47;;;9.60;99.90;;;;;;5052860;28;20429;-51
2021/10/26 05:54:28;;;;;;;26.17;14.30;;;9.70;99.90;;;;;;5054360;28;20538;-51
2021/10/26 05:56:57;;;;;;;18.27;14.07;;;9.50;99.90;;;;;;5055152;28;20910;-51
2021/10/26 05:59:24;;;;;;;19.13;12.07;;;9.10;99.90;;;;;;5054253;28;20439;-50
2021/10/26 06:01:50;;;;;;;14.37;12.30;;;9.60;99.90;;;;;;5052706;28;20477;-50
2021/10/26 06:04:17;;;;;;;17.77;12.80;;;9.60;99.90;;;;;;5053087;28;20482;-50
2021/10/26 06:06:44;;;;;;;16.47;13.53;;;9.80;99.90;;;;;;5052130;28;20903;-51
2021/10/26 06:09:14;;;;;;;17.50;12.90;;;9.80;99.90;;;;;;5051943;28;20431;-52
2021/10/26 06:11:47;;;;;;;23.17;14.30;;;9.30;99.90;;;;;;5051916;28;20439;-51
2021/10/26 06:14:15;;;;;;;20.27;13.80;;;9.60;99.90;;;;;;5051759;28;20478;-51
2021/10/26 06:16:43;;;;;;;16.97;14.00;;;9.70;99.90;;;;;;5051874;28;20462;-52
2021/10/26 06:19:11;;;;;;;15.97;14.10;;;9.90;99.90;;;;;;5051298;28;20461;-51
2021/10/26 06:21:40;;;;;;;19.90;14.27;;;9.70;99.90;;;;;;5051989;28;20489;-51
2021/10/26 06:24:06;;;;;;;14.97;13.07;;;10.00;99.90;;;;;;5051573;28;20929;-51
2021/10/26 06:26:33;;;;;;;18.07;13.93;;;9.90;99.90;;;;;;5051096;28;20451;-51
2021/10/26 06:29:04;;;;;;;15.33;12.33;;;9.90;99.90;;;;;;5051263;28;20450;-51
2021/10/26 06:31:33;;;;;;;16.37;13.33;;;9.80;99.90;;;;;;5051508;28;20454;-52
2021/10/26 06:34:01;;;;;;;20.27;13.03;;;10.30;99.90;;;;;;5051331;28;20500;-52
2021/10/26 06:36:29;;;;;;;18.50;12.60;;;9.90;99.90;;;;;;5051001;28;20451;-51
2021/10/26 06:38:59;;;;;;;17.33;12.53;;;10.20;99.90;;;;;;5050327;28;20457;-51
2021/10/26 06:41:27;;;;;;;19.37;13.20;;;9.80;99.90;;;;;;5051658;28;20486;-51
2021/10/26 06:43:57;;;;;;;15.47;11.80;;;9.90;99.90;;;;;;5052177;28;20450;-51
2021/10/26 06:46:44;;;;;;;18.77;13.10;;;10.40;99.90;;;;;;5052975;28;20430;-51
2021/10/26 06:49:30;;;;;;;23.77;13.77;;;10.50;99.90;;;;;;5052510;28;20410;-52
2021/10/26 06:52:16;;;;;;;18.43;13.30;;;10.40;99.90;;;;;;5052907;28;20497;-51
2021/10/26 06:55:01;;;;;;;16.17;12.80;;;10.20;99.90;;;;;;5052603;28;20857;-51
2021/10/26 06:57:48;;;;;;;17.13;13.30;;;10.50;99.90;;;;;;5052200;28;20426;-52
2021/10/26 07:00:35;;;;;;;22.40;15.33;;;10.10;99.90;;;;;;5052110;28;20479;-52
2021/10/26 07:03:32;;;;;;;15.80;13.20;;;10.40;99.90;;;;;;5047811;28;20474;-51
2021/10/26 07:06:18;;;;;;;16.03;13.93;;;10.30;99.90;;;;;;5052914;28;20418;-51
2021/10/26 07:09:00;;;;;;;18.60;13.43;;;10.40;99.90;;;;;;5052263;28;20442;-51
2021/10/26 07:11:32;;;;;;;16.60;14.00;;;10.40;99.90;;;;;;5052082;28;20443;-52
2021/10/26 07:14:05;;;;;;;25.30;15.03;;;10.50;99.90;;;;;;5050810;28;20543;-50
2021/10/26 07:16:33;;;;;;;18.40;13.80;;;10.80;99.90;;;;;;5050874;28;20839;-52
2021/10/26 07:19:02;;;;;;;21.03;12.87;;;10.30;99.90;;;;;;5049720;28;20442;-51
2021/10/26 07:21:42;;;;;;;16.03;12.90;;;10.80;99.90;;;;;;5050402;28;20486;-50
2021/10/26 07:24:29;;;;;;;19.57;13.03;;;10.70;99.90;;;;;;5040439;28;20417;-51
2021/10/26 07:27:01;;;;;;;18.70;14.30;;;10.70;99.90;;;;;;5050450;28;20810;-51
2021/10/26 07:29:28;;;;;;;16.87;11.93;;;10.80;99.90;;;;;;5049942;28;20448;-51
2021/10/26 07:31:56;;;;;;;21.57;13.97;;;10.90;99.90;;;;;;5051157;28;20493;-51
2021/10/26 07:34:24;;;;;;;20.70;14.00;;;10.80;99.90;;;;;;5050513;28;20884;-52
2021/10/26 07:36:52;;;;;;;14.10;12.60;;;10.90;99.90;;;;;;5050109;28;20459;-51
2021/10/26 07:39:31;;;;;;;16.57;11.63;;;10.90;99.90;;;;;;5051416;28;20517;-52
2021/10/26 07:41:59;;;;;;;21.10;14.93;;;11.00;99.90;;;;;;5050312;28;20477;-52
2021/10/26 07:44:46;;;;;;;16.53;12.77;;;11.10;99.90;;;;;;5052093;28;20476;-52
2021/10/26 07:47:20;;;;;;;19.43;13.60;;;11.20;99.90;;;;;;5050424;28;20504;-52
2021/10/26 07:49:51;;;;;;;18.63;14.00;;;11.20;99.90;;;;;;5046975;28;20489;-52
2021/10/26 07:52:21;;;;;;;16.00;13.07;;;11.40;99.90;;;;;;5049613;28;20462;-52
2021/10/26 07:54:54;;;;;;;22.10;13.83;;;11.30;99.90;;;;;;5049711;28;20465;-52
2021/10/26 07:57:22;;;;;;;23.30;15.40;;;11.30;99.90;;;;;;5049828;28;20443;-52
2021/10/26 07:59:49;;;;;;;17.73;13.43;;;11.50;99.90;;;;;;5049789;28;20455;-50
2021/10/26 08:02:17;;;;;;;16.60;13.40;;;11.20;99.90;;;;;;5049363;28;20479;-50
2021/10/26 08:05:12;;;;;;;18.43;13.30;;;11.00;99.90;;;;;;5040492;28;20448;-51
2021/10/26 08:07:39;;;;;;;22.33;14.07;;;11.80;99.90;;;;;;5042550;28;20555;-51
2021/10/26 08:10:07;;;;;;;19.73;13.90;;;11.70;99.90;;;;;;5050064;28;20535;-50
2021/10/26 08:12:36;;;;;;;19.10;14.13;;;11.70;99.90;;;;;;5049364;28;20466;-51
2021/10/26 08:15:04;;;;;;;13.97;12.47;;;11.70;99.90;;;;;;5049816;28;20443;-51
2021/10/26 08:17:34;;;;;;;22.73;14.10;;;11.90;99.90;;;;;;5058508;28;20456;-51
2021/10/26 08:20:01;;;;;;;19.03;13.33;;;11.90;99.90;;;;;;5049430;28;20473;-52
2021/10/26 08:22:32;;;;;;;19.77;13.97;;;12.10;99.90;;;;;;5049236;28;20481;-51
2021/10/26 08:25:05;;;;;;;16.40;13.10;;;12.00;99.90;;;;;;5049634;28;20486;-52
2021/10/26 08:27:32;;;;;;;22.03;14.50;;;11.70;99.90;;;;;;5049739;28;20445;-52
2021/10/26 08:30:08;;;;;;;15.80;12.63;;;12.20;99.90;;;;;;5049336;28;20467;-52
2021/10/26 08:32:50;;;;;;;16.07;13.00;;;12.20;99.90;;;;;;5049766;28;20530;-51
2021/10/26 08:35:28;;;;;;;21.63;13.83;;;12.30;99.90;;;;;;5049713;28;20827;-53
2021/10/26 08:37:59;;;;;;;18.70;15.43;;;12.40;99.90;;;;;;5050712;28;20448;-53
2021/10/26 08:40:34;;;;;;;20.17;14.27;;;12.30;99.90;;;;;;5049596;28;20533;-52
2021/10/26 08:43:06;;;;;;;20.20;15.40;;;12.50;99.90;;;;;;5049726;28;20550;-53
2021/10/26 08:45:34;;;;;;;24.53;15.50;;;12.50;99.90;;;;;;5049049;28;20464;-53
2021/10/26 08:48:03;;;;;;;22.10;14.93;;;12.50;99.90;;;;;;5048971;28;20504;-52
2021/10/26 08:51:01;;;;;;;16.33;14.23;;;12.10;99.90;;;;;;5045823;28;20981;-51
2021/10/26 08:53:40;;;;;;;18.17;15.03;;;12.50;99.90;;;;;;5049424;28;20458;-50
2021/10/26 08:56:26;;;;;;;23.97;16.13;;;12.80;99.90;;;;;;5051047;28;20422;-51
2021/10/26 08:59:12;;;;;;;32.00;16.30;;;12.60;99.90;;;;;;5050511;28;20436;-51
2021/10/26 09:01:42;;;;;;;23.30;16.67;;;12.50;99.90;;;;;;5049541;28;20481;-51
2021/10/26 09:04:12;;;;;;;23.33;17.13;;;12.50;99.90;;;;;;5050423;28;20904;-51
2021/10/26 09:06:44;;;;;;;24.67;17.10;;;12.50;99.90;;;;;;5050667;28;20541;-51
2021/10/26 09:09:17;;;;;;;24.47;17.87;;;12.60;99.90;;;;;;5052795;28;20942;-51
2021/10/26 09:18:26;;;;;;;20.77;17.30;;;12.70;99.90;;;;;;5016328;28;20518;-51
2021/10/26 09:20:59;;;;;;;19.23;15.73;;;12.30;99.90;;;;;;5054311;28;20480;-52
2021/10/26 09:23:47;;;;;;;20.00;16.13;;;12.60;99.90;;;;;;5052774;28;20466;-51
2021/10/26 09:26:17;;;;;;;29.33;16.20;;;12.80;99.90;;;;;;5053840;28;20438;-51
2021/10/26 09:28:52;;;;;;;21.43;17.70;;;12.80;99.90;;;;;;5053681;28;20453;-52
2021/10/26 09:31:24;;;;;;;24.93;16.33;;;12.90;99.90;;;;;;5053399;28;20528;-51
2021/10/26 09:34:01;;;;;;;18.80;16.80;;;12.50;99.90;;;;;;5052950;28;20471;-53
2021/10/26 09:36:28;;;;;;;21.63;16.63;;;13.00;99.90;;;;;;5054059;28;20810;-52
2021/10/26 09:38:57;;;;;;;22.70;17.23;;;13.00;99.90;;;;;;5052547;28;20449;-51
2021/10/26 09:41:25;;;;;;;20.53;15.47;;;13.10;99.90;;;;;;5054350;28;20472;-51
2021/10/26 09:44:09;;;;;;;21.37;13.87;;;13.10;99.90;;;;;;5052606;28;20478;-52
2021/10/26 09:46:36;;;;;;;18.73;15.40;;;13.20;99.90;;;;;;5053849;28;20998;-51
2021/10/26 09:49:21;;;;;;;24.13;15.43;;;13.20;99.90;;;;;;5053770;28;20442;-50
2021/10/26 09:51:48;;;;;;;21.57;15.10;;;13.20;99.90;;;;;;5054065;28;20539;-51
2021/10/26 09:54:18;;;;;;;20.03;16.30;;;13.30;99.90;;;;;;5054025;28;20540;-52
2021/10/26 09:57:05;;;;;;;21.83;16.17;;;13.40;99.90;;;;;;5052276;28;20571;-52
2021/10/26 09:59:32;;;;;;;17.57;14.43;;;13.40;99.90;;;;;;5053410;28;20529;-52
2021/10/26 10:01:59;;;;;;;21.03;13.97;;;13.50;99.90;;;;;;5053478;28;20480;-52
2021/10/26 10:04:28;;;;;;;19.67;13.80;;;13.30;99.90;;;;;;5110857;22;20488;-48
2021/10/26 10:06:55;;;;;;;18.00;13.97;;;13.70;99.90;;;;;;5094238;28;20922;-48
2021/10/26 10:09:23;;;;;;;20.33;14.60;;;13.60;99.90;;;;;;5109377;28;20430;-47
2021/10/26 10:12:03;;;;;;;16.43;13.93;;;13.90;99.90;;;;;;5093372;28;20478;-47
2021/10/26 10:14:37;;;;;;;19.23;12.40;;;14.00;99.90;;;;;;5094017;28;20534;-47
2021/10/26 10:17:08;;;;;;;16.27;12.30;;;14.10;99.90;;;;;;5091253;28;20482;-47
2021/10/26 10:19:37;;;;;;;13.63;12.17;;;14.20;99.90;;;;;;5092649;28;20447;-47
2021/10/26 10:22:06;;;;;;;24.27;12.30;;;14.30;99.90;;;;;;5094392;28;20457;-46
2021/10/26 10:24:37;;;;;;;15.83;12.43;;;14.40;99.90;;;;;;5094132;28;20866;-46
2021/10/26 10:27:05;;;;;;;16.63;12.30;;;14.40;99.90;;;;;;5093695;28;20464;-46
2021/10/26 10:29:34;;;;;;;21.70;12.97;;;14.40;99.90;;;;;;5093265;28;20624;-47
2021/10/26 10:32:02;;;;;;;21.30;12.60;;;14.50;99.90;;;;;;5093789;28;20434;-47
2021/10/26 10:34:30;;;;;;;18.47;12.30;;;14.60;99.90;;;;;;5094159;28;20563;-46
2021/10/26 10:37:00;;;;;;;14.43;10.53;;;14.60;99.90;;;;;;5094688;28;20517;-49
2021/10/26 10:39:33;;;;;;;15.83;10.77;;;14.60;99.90;;;;;;5097269;28;20420;-46
2021/10/26 10:42:17;;;;;;;17.97;10.80;;;14.70;99.90;;;;;;5094212;28;20504;-47
2021/10/26 10:44:43;;;;;;;15.97;10.10;;;14.70;99.90;;;;;;5093756;28;20558;-47
2021/10/26 10:47:33;;;;;;;12.33;9.30;;;14.60;99.90;;;;;;5093552;28;20496;-46
2021/10/26 10:50:02;;;;;;;13.10;9.50;;;14.60;99.90;;;;;;5093934;28;20431;-47
2021/10/26 10:52:32;;;;;;;14.07;9.97;;;14.30;99.90;;;;;;5093347;28;20429;-48
2021/10/26 10:55:02;;;;;;;11.50;10.30;;;14.70;99.90;;;;;;5094001;28;20782;-47
2021/10/26 10:57:32;;;;;;;11.47;10.27;;;14.70;99.90;;;;;;5093988;28;20489;-45
2021/10/26 11:00:01;;;;;;;15.97;9.13;;;14.70;99.90;;;;;;5092829;28;20426;-47
2021/10/26 11:02:35;;;;;;;14.20;10.57;;;14.70;99.90;;;;;;5093459;28;20991;-48
2021/10/26 11:05:04;;;;;;;11.53;9.07;;;14.80;99.90;;;;;;5091680;28;20448;-48
2021/10/26 11:07:50;;;;;;;16.13;10.87;;;14.70;99.90;;;;;;5093710;28;20433;-46
2021/10/26 11:10:19;;;;;;;14.40;10.33;;;14.80;99.90;;;;;;5094202;28;20407;-47
2021/10/26 11:12:46;;;;;;;17.90;10.80;;;14.80;99.90;;;;;;5094069;28;20456;-46
2021/10/26 11:15:16;;;;;;;14.83;10.77;;;14.80;99.90;;;;;;5092808;28;20456;-46
2021/10/26 11:17:57;;;;;;;14.13;10.47;;;14.90;99.90;;;;;;5093612;28;20437;-46
2021/10/26 11:20:46;;;;;;;15.93;11.90;;;14.90;99.90;;;;;;5093267;28;20531;-46
2021/10/26 11:23:45;;;;;;;14.90;10.97;;;14.90;99.90;;;;;;5091892;28;20476;-47
2021/10/26 11:26:15;;;;;;;14.73;11.13;;;14.90;99.90;;;;;;5049671;28;20913;-47
2021/10/26 11:28:57;;;;;;;14.87;12.10;;;14.90;99.90;;;;;;5082242;28;20456;-46
2021/10/26 11:31:30;;;;;;;15.63;12.30;;;15.00;99.90;;;;;;5092038;28;20538;-46
2021/10/26 11:34:06;;;;;;;14.87;12.03;;;15.60;99.90;;;;;;5091123;28;20836;-47
2021/10/26 11:36:35;;;;;;;18.40;11.77;;;15.10;99.90;;;;;;5091470;28;20964;-47
2021/10/26 11:39:05;;;;;;;14.17;12.20;;;15.10;99.90;;;;;;5092220;28;20516;-47
2021/10/26 11:41:35;;;;;;;17.37;12.33;;;15.10;99.90;;;;;;5092517;28;20503;-46
2021/10/26 11:44:06;;;;;;;17.70;13.07;;;15.10;99.90;;;;;;5092651;28;20478;-47
2021/10/26 11:46:35;;;;;;;18.73;12.00;;;15.10;99.90;;;;;;5091828;28;20446;-47
2021/10/26 11:49:06;;;;;;;16.20;12.63;;;15.10;99.90;;;;;;5092159;28;20528;-47
2021/10/26 11:51:36;;;;;;;17.20;13.40;;;15.20;99.90;;;;;;5091971;28;20591;-47
2021/10/26 11:54:07;;;;;;;13.63;12.05;;;15.20;99.90;;;;;;5090991;28;20738;-47
2021/10/26 11:56:38;;;;;;;18.37;13.50;;;15.30;99.90;;;;;;5093695;28;20223;-48
2021/10/26 11:59:10;;;;;;;15.97;13.30;;;15.30;99.90;;;;;;5092474;28;20527;-47
2021/10/26 12:01:49;;;;;;;15.73;13.37;;;15.30;99.90;;;;;;5090181;28;20746;-47
2021/10/26 12:04:20;;;;;;;19.50;14.13;;;15.40;99.90;;;;;;5090365;28;20571;-46
2021/10/26 12:06:49;;;;;;;20.33;14.40;;;15.40;99.90;;;;;;5091829;28;20987;-46
2021/10/26 12:09:16;;;;;;;16.90;11.53;;;15.40;99.90;;;;;;5091182;28;20429;-46
2021/10/26 12:11:45;;;;;;;11.27;10.10;;;15.40;99.90;;;;;;5091925;28;20442;-47
2021/10/26 12:14:20;;;;;;;15.23;13.63;;;15.40;99.90;;;;;;5089410;28;20456;-47
2021/10/26 12:17:04;;;;;;;17.77;13.50;;;15.40;99.90;;;;;;5091516;28;20439;-48
2021/10/26 12:19:35;;;;;;;18.73;12.50;;;15.40;99.90;;;;;;5071072;28;20459;-46
2021/10/26 12:22:02;;;;;;;18.57;13.40;;;15.70;99.90;;;;;;5071216;28;20472;-46
2021/10/26 12:24:34;;;;;;;17.10;12.87;;;15.40;99.90;;;;;;5073010;28;20465;-48
2021/10/26 12:27:04;;;;;;;14.23;12.73;;;15.40;99.90;;;;;;5091156;28;20904;-47
2021/10/26 12:29:35;;;;;;;15.93;12.03;;;15.50;99.90;;;;;;5089489;28;20457;-47
2021/10/26 12:32:03;;;;;;;15.23;11.70;;;15.40;99.90;;;;;;5093000;28;20437;-46
2021/10/26 12:34:38;;;;;;;14.20;11.70;;;15.50;99.90;;;;;;5091789;28;20445;-47
2021/10/26 12:37:33;;;;;;;18.40;12.10;;;15.50;99.90;;;;;;5091867;28;20469;-46
2021/10/26 12:40:02;;;;;;;16.87;13.00;;;15.50;99.90;;;;;;5043811;28;20456;-47
2021/10/26 12:42:34;;;;;;;19.47;13.80;;;15.50;99.90;;;;;;5094272;28;20572;-46
2021/10/26 12:45:03;;;;;;;12.37;10.30;;;15.80;99.90;;;;;;5094252;28;20453;-46
2021/10/26 12:47:33;;;;;;;16.00;12.27;;;15.30;99.90;;;;;;5095092;28;20787;-48
2021/10/26 12:50:05;;;;;;;18.70;12.20;;;15.50;99.90;;;;;;5095094;28;20832;-47
2021/10/26 12:52:32;;;;;;;18.00;13.17;;;15.50;99.90;;;;;;5095088;28;20941;-47
2021/10/26 12:55:00;;;;;;;14.53;12.40;;;15.40;99.90;;;;;;5095000;28;20440;-47
2021/10/26 12:57:37;;;;;;;17.00;12.33;;;15.70;99.90;;;;;;5095091;28;20444;-46
2021/10/26 13:00:22;;;;;;;14.00;11.93;;;15.40;99.90;;;;;;5093750;28;20453;-46
2021/10/26 13:02:50;;;;;;;16.90;12.67;;;15.40;99.90;;;;;;5082163;28;20480;-47